Time;durP1;ratioP1;P1;durP2;ratioP2;P2;SDS_P1;SDS_P2;PMS_P1;PMS_P2;Temp;Humidity;BMP_temperature;BMP_pressure;BME280_temperature;BME280_humidity;BME280_pressure;Samples;Min_cycle;Max_cycle;Signal;HPM_P1;HPM_P2
2023/12/20 00:01:30;;;;;;;21.43;7.90;;;;;;;4.62;100.00;101467.31;5282121;28;20043;-73
2023/12/20 00:04:03;;;;;;;21.77;6.87;;;;;;;4.55;100.00;101463.72;5282157;28;20020;-74
2023/12/20 00:06:34;;;;;;;20.15;7.38;;;;;;;4.51;100.00;101472.25;5281967;28;20340;-73
2023/12/20 00:09:05;;;;;;;23.07;8.90;;;;;;;4.44;100.00;101481.53;5282569;28;20092;-73
2023/12/20 00:11:37;;;;;;;20.93;7.70;;;;;;;4.41;100.00;101476.28;5281752;28;20028;-73
2023/12/20 00:14:08;;;;;;;27.43;6.80;;;;;;;4.36;100.00;101480.47;5280446;28;20037;-74
2023/12/20 00:16:39;;;;;;;20.67;7.67;;;;;;;4.32;100.00;101476.09;5281850;28;20387;-73
2023/12/20 00:19:11;;;;;;;22.97;6.60;;;;;;;4.27;100.00;101483.72;5281694;28;20036;-73
2023/12/20 00:21:42;;;;;;;25.87;6.40;;;;;;;4.26;100.00;101487.13;5281384;28;20351;-73
2023/12/20 00:24:13;;;;;;;18.87;5.43;;;;;;;4.25;100.00;101492.25;5281717;28;20031;-74
2023/12/20 00:26:45;;;;;;;19.67;5.27;;;;;;;4.24;100.00;101475.03;5280349;28;20036;-74
2023/12/20 00:29:16;;;;;;;28.07;6.07;;;;;;;4.20;100.00;101474.97;5281825;28;20367;-74
2023/12/20 00:31:47;;;;;;;24.17;5.90;;;;;;;4.18;100.00;101479.19;5281337;28;20152;-74
2023/12/20 00:34:19;;;;;;;17.50;5.60;;;;;;;4.12;100.00;101475.59;5281776;28;20028;-74
2023/12/20 00:36:50;;;;;;;24.57;6.27;;;;;;;4.08;100.00;101479.81;5281566;28;20208;-74
2023/12/20 00:39:22;;;;;;;17.87;4.87;;;;;;;4.04;100.00;101465.06;5281897;28;20130;-75
2023/12/20 00:41:53;;;;;;;15.97;4.77;;;;;;;3.99;100.00;101469.25;5281634;28;20119;-74
2023/12/20 00:44:24;;;;;;;21.47;5.10;;;;;;;4.00;100.00;101474.44;5281767;28;20028;-74
2023/12/20 00:46:55;;;;;;;23.47;6.13;;;;;;;3.95;100.00;101470.88;5281693;28;20484;-74
2023/12/20 00:49:27;;;;;;;21.07;5.83;;;;;;;3.92;100.00;101465.66;5281651;28;20059;-75
2023/12/20 00:51:58;;;;;;;23.03;5.53;;;;;;;3.91;100.00;101463.94;5280863;28;20082;-74
2023/12/20 00:54:30;;;;;;;19.10;4.67;;;;;;;3.96;100.00;101466.59;5283697;28;20036;-74
2023/12/20 00:57:02;;;;;;;31.60;7.95;;;;;;;3.96;100.00;101462.31;5285906;28;20052;-74
2023/12/20 00:59:33;;;;;;;18.23;4.20;;;;;;;3.93;100.00;101459.66;5285832;28;20079;-75
2023/12/20 01:02:04;;;;;;;23.73;6.23;;;;;;;3.90;100.00;101456.16;5285587;28;20442;-75
2023/12/20 01:04:36;;;;;;;23.03;4.93;;;;;;;3.88;100.00;101461.25;5285485;28;20024;-74
2023/12/20 01:07:07;;;;;;;24.00;5.23;;;;;;;3.84;100.00;101470.59;5284224;28;20060;-74
2023/12/20 01:09:39;;;;;;;21.30;5.20;;;;;;;3.80;100.00;101470.47;5285728;28;20033;-74
2023/12/20 01:12:10;;;;;;;22.03;5.33;;;;;;;3.86;100.00;101464.63;5285174;28;20116;-74
2023/12/20 01:14:42;;;;;;;21.77;5.17;;;;;;;3.89;100.00;101467.28;5285822;28;20028;-75
2023/12/20 01:17:13;;;;;;;19.77;5.13;;;;;;;3.91;100.00;101481.09;5285229;28;20174;-75
2023/12/20 01:19:45;;;;;;;16.77;4.27;;;;;;;3.90;100.00;101471.63;5284146;28;20052;-75
2023/12/20 01:22:16;;;;;;;21.93;5.20;;;;;;;3.87;100.00;101474.97;5285272;28;20037;-73
2023/12/20 01:24:47;;;;;;;18.40;5.13;;;;;;;3.91;100.00;101481.09;5285254;28;20028;-74
2023/12/20 01:27:19;;;;;;;23.50;5.27;;;;;;;3.94;100.00;101476.00;5285178;28;20032;-74
2023/12/20 01:29:50;;;;;;;21.33;5.50;;;;;;;3.96;100.00;101485.53;5284768;28;20032;-74
2023/12/20 01:32:21;;;;;;;26.17;5.37;;;;;;;3.98;100.00;101486.44;5283359;28;20071;-73
2023/12/20 01:34:53;;;;;;;16.00;4.40;;;;;;;3.97;100.00;101486.41;5284814;28;20429;-74
2023/12/20 01:37:25;;;;;;;17.63;6.03;;;;;;;3.93;100.00;101482.88;5285048;28;20032;-74
2023/12/20 01:39:56;;;;;;;25.40;4.47;;;;;;;3.91;100.00;101478.50;5284653;28;20036;-74
2023/12/20 01:42:28;;;;;;;20.63;4.43;;;;;;;3.91;100.00;101481.97;5284613;28;20037;-74
2023/12/20 01:44:59;;;;;;;20.43;5.20;;;;;;;3.92;100.00;101482.84;5284856;28;20363;-74
2023/12/20 01:47:31;;;;;;;22.93;5.93;;;;;;;3.93;100.00;101482.00;5284618;28;20032;-74
2023/12/20 01:50:03;;;;;;;23.33;5.53;;;;;;;3.93;100.00;101479.41;5284433;28;20024;-73
2023/12/20 01:52:35;;;;;;;23.52;5.45;;;;;;;3.92;100.00;101480.25;5284132;28;20033;-74
2023/12/20 01:55:13;;;;;;;23.20;5.73;;;;;;;3.89;100.00;101472.44;5284644;28;20036;-74
2023/12/20 01:57:45;;;;;;;23.00;5.80;;;;;;;3.90;100.00;101481.94;5284758;28;20051;-74
2023/12/20 02:00:18;;;;;;;16.27;4.43;;;;;;;3.87;100.00;101481.84;5284489;28;20430;-74
2023/12/20 02:02:50;;;;;;;;;;;;;;;3.79;100.00;101469.63;5284585;28;20495;-74
2023/12/20 02:05:22;;;;;;;21.60;6.60;;;;;;;3.81;100.00;101469.66;5284199;28;19916;-74
2023/12/20 02:07:53;;;;;;;22.60;5.67;;;;;;;3.74;100.00;101470.34;5316757;28;20033;-74
2023/12/20 02:10:25;;;;;;;26.60;6.53;;;;;;;3.71;100.00;101465.09;5284428;28;20038;-74
2023/12/20 02:12:57;;;;;;;20.73;4.77;;;;;;;3.75;100.00;101477.22;5284056;28;20052;-75
2023/12/20 02:15:28;;;;;;;35.13;6.83;;;;;;;3.80;100.00;101475.63;5282631;28;20048;-74
2023/12/20 02:17:59;;;;;;;23.33;7.47;;;;;;;3.87;100.00;101487.88;5284186;28;20032;-74
2023/12/20 02:20:31;;;;;;;26.97;5.83;;;;;;;3.86;100.00;101480.97;5284070;28;20037;-75
2023/12/20 02:23:02;;;;;;;23.07;6.00;;;;;;;3.86;100.00;101480.97;5283731;28;20122;-75
2023/12/20 02:25:34;;;;;;;18.47;5.07;;;;;;;3.87;100.00;101474.13;5283887;28;20028;-75
2023/12/20 02:28:06;;;;;;;23.50;7.17;;;;;;;3.88;100.00;101479.31;5282779;28;20462;-75
2023/12/20 02:30:37;;;;;;;27.42;6.32;;;;;;;3.85;100.00;101471.50;5283658;28;20479;-74
2023/12/20 02:33:12;;;;;;;24.00;5.93;;;;;;;3.78;100.00;101467.91;5283250;28;20130;-74
2023/12/20 02:35:43;;;;;;;26.85;6.70;;;;;;;3.82;100.00;101466.25;5283757;28;20115;-73
2023/12/20 02:38:14;;;;;;;27.73;7.30;;;;;;;3.80;100.00;101467.91;5280799;28;20043;-74
2023/12/20 02:40:46;;;;;;;30.43;6.77;;;;;;;3.78;100.00;101477.31;5283380;28;20094;-73
2023/12/20 02:43:17;;;;;;;28.00;7.43;;;;;;;3.83;100.00;101465.41;5281126;28;20033;-74
2023/12/20 02:45:48;;;;;;;30.60;6.47;;;;;;;3.79;100.00;101473.91;5283292;28;20109;-74
2023/12/20 02:48:20;;;;;;;20.77;5.10;;;;;;;3.81;100.00;101474.81;5283308;28;20442;-74
2023/12/20 02:50:51;;;;;;;22.40;5.97;;;;;;;3.80;100.00;101467.91;5283161;28;20113;-73
2023/12/20 02:53:23;;;;;;;25.97;6.33;;;;;;;3.81;100.00;101467.09;5283084;28;20452;-74
2023/12/20 02:55:54;;;;;;;23.77;7.33;;;;;;;3.80;100.00;101466.22;5283542;28;20028;-74
2023/12/20 02:58:25;;;;;;;19.93;7.67;;;;;;;3.87;100.00;101477.56;5283278;28;20033;-74
2023/12/20 03:00:57;;;;;;;26.57;7.50;;;;;;;3.87;100.00;101476.69;5283283;28;20056;-74
2023/12/20 03:03:28;;;;;;;22.90;6.83;;;;;;;3.82;100.00;101468.84;5278606;28;20025;-73
2023/12/20 03:05:59;;;;;;;17.00;4.90;;;;;;;3.79;100.00;101464.47;5262277;28;20116;-73
2023/12/20 03:08:31;;;;;;;24.07;6.40;;;;;;;3.80;100.00;101468.78;5261554;28;20033;-74
2023/12/20 03:11:02;;;;;;;27.57;6.30;;;;;;;3.73;100.00;101464.28;5262139;28;20037;-74
2023/12/20 03:13:34;;;;;;;31.63;7.93;;;;;;;3.73;100.00;101471.16;5261989;28;20032;-74
2023/12/20 03:16:12;;;;;;;26.03;6.10;;;;;;;3.70;100.00;101456.47;5273986;28;20040;-74
2023/12/20 03:18:44;;;;;;;19.73;5.47;;;;;;;3.63;100.00;101463.19;5282853;28;20040;-74
2023/12/20 03:21:15;;;;;;;28.03;6.33;;;;;;;3.60;100.00;101450.22;5282594;28;20123;-74
2023/12/20 03:23:47;;;;;;;26.83;6.30;;;;;;;3.63;100.00;101452.88;5282856;28;20114;-75
2023/12/20 03:26:19;;;;;;;27.17;6.88;;;;;;;3.60;100.00;101449.34;5282525;28;20039;-74
2023/12/20 03:28:50;;;;;;;23.47;5.67;;;;;;;3.60;100.00;101451.91;5282522;28;20040;-75
2023/12/20 03:31:21;;;;;;;23.47;6.17;;;;;;;3.63;100.00;101446.84;5282335;28;20479;-74
2023/12/20 03:33:53;;;;;;;23.93;6.70;;;;;;;3.65;100.00;101440.91;5282819;28;20086;-75
2023/12/20 03:36:24;;;;;;;25.83;7.27;;;;;;;3.70;100.00;101443.59;5282441;28;20037;-74
2023/12/20 03:38:56;;;;;;;27.50;6.83;;;;;;;3.79;100.00;101435.22;5282535;28;20031;-74
2023/12/20 03:41:27;;;;;;;23.53;7.60;;;;;;;3.81;100.00;101436.13;5282529;28;20163;-73
2023/12/20 03:43:59;;;;;;;20.83;6.00;;;;;;;3.80;100.00;101431.78;5282387;28;20033;-74
2023/12/20 03:46:30;;;;;;;24.70;7.67;;;;;;;3.88;100.00;101444.91;5281615;28;20029;-75
2023/12/20 03:49:01;;;;;;;27.93;7.50;;;;;;;3.95;100.00;101432.19;5282054;28;20092;-75
2023/12/20 03:51:33;;;;;;;25.93;8.00;;;;;;;3.96;100.00;101433.06;5282233;28;20471;-74
2023/12/20 03:54:04;;;;;;;24.40;6.67;;;;;;;4.00;100.00;101433.19;5282019;28;20116;-74
2023/12/20 03:56:35;;;;;;;38.27;8.17;;;;;;;4.04;100.00;101441.00;5282485;28;20080;-75
2023/12/20 03:59:07;;;;;;;24.43;6.43;;;;;;;4.08;100.00;101441.09;5280811;28;20037;-74
2023/12/20 04:01:38;;;;;;;26.40;8.33;;;;;;;4.14;100.00;101437.81;5281864;28;20036;-74
2023/12/20 04:04:09;;;;;;;26.40;7.40;;;;;;;4.17;100.00;101441.34;5282055;28;20072;-74
2023/12/20 04:06:41;;;;;;;25.20;8.20;;;;;;;4.24;100.00;101444.94;5282106;28;20036;-74
2023/12/20 04:09:12;;;;;;;37.20;9.70;;;;;;;4.30;100.00;101442.50;5282004;28;20028;-74
2023/12/20 04:11:43;;;;;;;31.77;8.27;;;;;;;4.35;100.00;101429.72;5280816;28;20028;-73
2023/12/20 04:14:15;;;;;;;29.73;8.07;;;;;;;4.40;100.00;101437.56;5282041;28;20048;-74
2023/12/20 04:16:46;;;;;;;30.73;9.70;;;;;;;4.42;100.00;101443.63;5281865;28;20033;-74
2023/12/20 04:19:17;;;;;;;28.20;9.17;;;;;;;4.43;100.00;101446.25;5282047;28;20107;-74
2023/12/20 04:21:49;;;;;;;28.97;7.27;;;;;;;4.43;100.00;101443.66;5281713;28;20043;-74
2023/12/20 04:24:20;;;;;;;30.63;7.77;;;;;;;4.48;100.00;101444.63;5281263;28;20154;-74
2023/12/20 04:26:52;;;;;;;21.90;6.50;;;;;;;4.55;100.00;101432.72;5281335;28;20044;-74
2023/12/20 04:29:23;;;;;;;20.43;8.00;;;;;;;4.54;100.00;101436.13;5281507;28;20051;-75
2023/12/20 04:31:55;;;;;;;37.07;10.37;;;;;;;4.59;100.00;101444.88;5281059;28;20450;-74
2023/12/20 04:34:26;;;;;;;25.60;7.03;;;;;;;4.60;100.00;101453.50;5281617;28;20056;-74
2023/12/20 04:36:58;;;;;;;26.03;8.53;;;;;;;4.62;100.00;101450.13;5281412;28;20267;-75
2023/12/20 04:39:29;;;;;;;20.23;6.97;;;;;;;4.64;100.00;101447.56;5281511;28;20108;-75
2023/12/20 04:42:00;;;;;;;29.47;8.47;;;;;;;4.64;100.00;101445.84;5281778;28;20033;-75
2023/12/20 04:44:32;;;;;;;28.70;7.10;;;;;;;4.65;100.00;101439.81;5281728;28;20090;-75
2023/12/20 04:47:03;;;;;;;31.83;7.57;;;;;;;4.71;100.00;101447.72;5281474;28;20029;-75
2023/12/20 04:49:35;;;;;;;31.97;6.60;;;;;;;4.72;100.00;101448.59;5281468;28;20063;-74
2023/12/20 04:52:06;;;;;;;23.97;6.60;;;;;;;4.73;100.00;101445.16;5279469;28;20040;-75
2023/12/20 04:54:37;;;;;;;29.10;6.43;;;;;;;4.77;100.00;101452.16;5281847;28;20391;-74
2023/12/20 04:57:09;;;;;;;19.63;6.83;;;;;;;4.80;100.00;101457.41;5281317;28;20407;-74
2023/12/20 04:59:41;;;;;;;28.47;7.17;;;;;;;4.80;100.00;101453.91;5281485;28;20029;-74
2023/12/20 05:02:13;;;;;;;24.67;7.22;;;;;;;4.75;100.00;101452.13;5281256;28;20375;-74
2023/12/20 05:04:44;;;;;;;28.30;6.20;;;;;;;4.72;100.00;101441.72;5281013;28;20086;-74
2023/12/20 05:07:16;;;;;;;26.13;6.47;;;;;;;4.69;100.00;101436.50;5281261;28;20032;-75
2023/12/20 05:09:47;;;;;;;23.50;6.63;;;;;;;4.68;100.00;101439.03;5281370;28;20114;-75
2023/12/20 05:12:19;;;;;;;27.80;7.13;;;;;;;4.72;100.00;101430.53;5281304;28;20043;-75
2023/12/20 05:14:52;;;;;;;24.20;7.17;;;;;;;4.71;100.00;101428.78;5281056;28;20058;-75
2023/12/20 05:17:23;;;;;;;20.30;6.43;;;;;;;4.77;100.00;101428.06;5280979;28;20154;-75
2023/12/20 05:19:55;;;;;;;31.07;6.93;;;;;;;4.76;100.00;101422.00;5281327;28;20397;-76
2023/12/20 05:22:27;;;;;;;26.03;8.13;;;;;;;4.78;100.00;101420.31;5280700;28;20491;-75
2023/12/20 05:24:58;;;;;;;21.83;6.43;;;;;;;4.75;100.00;101425.44;5281043;28;20056;-75
2023/12/20 05:27:30;;;;;;;23.37;5.83;;;;;;;4.77;100.00;101434.06;5280996;28;20039;-74
2023/12/20 05:30:01;;;;;;;24.60;6.87;;;;;;;4.80;100.00;101435.84;5281084;28;20158;-75
2023/12/20 05:32:32;;;;;;;28.87;7.60;;;;;;;4.78;100.00;101437.53;5279236;28;20353;-76
2023/12/20 05:35:04;;;;;;;28.83;7.23;;;;;;;4.78;100.00;101434.94;5281208;28;20321;-75
2023/12/20 05:37:36;;;;;;;27.23;6.10;;;;;;;4.80;100.00;101439.31;5280995;28;20041;-75
2023/12/20 05:40:10;;;;;;;23.73;5.33;;;;;;;4.78;100.00;101434.94;5283061;28;20033;-74
2023/12/20 05:42:41;;;;;;;28.20;7.43;;;;;;;4.75;100.00;101434.03;5284685;28;20070;-74
2023/12/20 05:45:14;;;;;;;20.70;5.70;;;;;;;4.75;100.00;101436.63;5284768;28;20036;-74
2023/12/20 05:47:46;;;;;;;23.90;6.22;;;;;;;4.72;100.00;101430.53;5284716;28;20029;-74
2023/12/20 05:50:17;;;;;;;24.57;6.67;;;;;;;4.68;100.00;101437.31;5284456;28;20505;-74
2023/12/20 05:52:48;;;;;;;27.77;5.00;;;;;;;4.60;100.00;101440.59;5284320;28;20343;-73
2023/12/20 05:55:20;;;;;;;17.57;5.57;;;;;;;4.54;100.00;101436.13;5284632;28;20033;-74
2023/12/20 05:57:51;;;;;;;35.80;7.53;;;;;;;4.38;100.00;101438.38;5284628;28;20024;-74
2023/12/20 06:00:22;;;;;;;19.67;6.10;;;;;;;4.35;100.00;101450.34;5283129;28;20036;-74
2023/12/20 06:02:54;;;;;;;24.80;6.33;;;;;;;4.28;100.00;101448.44;5284307;28;20089;-74
2023/12/20 06:05:26;;;;;;;37.20;7.57;;;;;;;4.17;100.00;101464.56;5284567;28;20032;-74
2023/12/20 06:08:01;;;;;;;29.47;6.77;;;;;;;4.16;100.00;101465.38;5284107;28;20074;-73
2023/12/20 06:10:32;;;;;;;24.58;7.43;;;;;;;4.17;100.00;101459.41;5283983;28;20463;-74
2023/12/20 06:13:06;;;;;;;34.50;7.57;;;;;;;4.18;100.00;101457.69;5282581;28;20048;-73
2023/12/20 06:15:37;;;;;;;24.02;7.03;;;;;;;4.18;100.00;101455.09;5283343;28;20033;-74
2023/12/20 06:18:09;;;;;;;27.53;6.93;;;;;;;4.19;100.00;101454.28;5316795;28;20355;-73
2023/12/20 06:20:40;;;;;;;26.97;7.10;;;;;;;4.15;100.00;101452.44;5316744;28;20527;-74
2023/12/20 06:23:11;;;;;;;21.17;6.87;;;;;;;4.07;100.00;101453.97;5282484;28;20037;-74
2023/12/20 06:25:44;;;;;;;26.40;7.93;;;;;;;4.05;100.00;101460.81;5283868;28;20480;-74
2023/12/20 06:28:15;;;;;;;23.52;8.13;;;;;;;4.01;100.00;101457.28;5284233;28;20179;-73
2023/12/20 06:30:49;;;;;;;23.33;5.47;;;;;;;3.94;100.00;101448.50;5282908;28;20388;-73
2023/12/20 06:33:22;;;;;;;30.83;7.65;;;;;;;3.92;100.00;101450.16;5283689;28;20049;-72
2023/12/20 06:35:53;;;;;;;28.98;7.18;;;;;;;3.86;100.00;101444.84;5283935;28;20033;-73
2023/12/20 06:38:24;;;;;;;34.50;7.77;;;;;;;3.80;100.00;101449.84;5283702;28;20044;-74
2023/12/20 06:40:57;;;;;;;29.67;9.33;;;;;;;3.88;100.00;101448.38;5283756;28;20029;-73
2023/12/20 06:43:29;;;;;;;25.85;8.38;;;;;;;3.92;100.00;101449.31;5283794;28;20044;-73
2023/12/20 06:46:00;;;;;;;21.73;7.97;;;;;;;3.95;100.00;101444.22;5283793;28;20129;-73
2023/12/20 06:48:32;;;;;;;30.63;8.77;;;;;;;3.99;100.00;101440.88;5283633;28;20036;-74
2023/12/20 06:51:03;;;;;;;27.40;8.50;;;;;;;4.00;100.00;101445.22;5283351;28;20544;-75
2023/12/20 06:53:35;;;;;;;19.97;7.40;;;;;;;4.01;100.00;101440.09;5283139;28;20133;-74
2023/12/20 06:56:07;;;;;;;27.87;8.37;;;;;;;4.03;100.00;101447.88;5283580;28;20033;-74
2023/12/20 06:58:38;;;;;;;27.88;7.57;;;;;;;4.08;100.00;101445.41;5283317;28;20029;-74
2023/12/20 07:01:13;;;;;;;27.30;8.70;;;;;;;4.06;100.00;101437.63;5283179;28;20029;-73
2023/12/20 07:03:45;;;;;;;25.55;8.70;;;;;;;4.10;100.00;101441.16;5283142;28;20060;-73
2023/12/20 07:06:16;;;;;;;27.60;7.73;;;;;;;4.09;100.00;101437.72;5283503;28;20071;-74
2023/12/20 07:08:48;;;;;;;27.33;8.73;;;;;;;4.11;100.00;101440.31;5282180;28;20070;-74
2023/12/20 07:11:19;;;;;;;33.30;7.57;;;;;;;4.12;100.00;101439.47;5283158;28;20393;-74
2023/12/20 07:13:51;;;;;;;27.33;7.50;;;;;;;4.09;100.00;101445.44;5282948;28;20496;-73
2023/12/20 07:16:22;;;;;;;27.83;8.47;;;;;;;4.08;100.00;101443.69;5282988;28;20036;-74
2023/12/20 07:18:54;;;;;;;20.13;7.07;;;;;;;4.08;100.00;101442.81;5283177;28;20033;-74
2023/12/20 07:21:25;;;;;;;27.73;8.57;;;;;;;4.12;100.00;101439.47;5282769;28;20138;-74
2023/12/20 07:23:56;;;;;;;27.23;7.73;;;;;;;4.13;100.00;101438.66;5282634;28;20488;-74
2023/12/20 07:26:28;;;;;;;26.40;7.10;;;;;;;4.19;100.00;101438.78;5282663;28;20038;-74
2023/12/20 07:28:59;;;;;;;22.43;7.10;;;;;;;4.19;100.00;101442.25;5282977;28;20033;-74
2023/12/20 07:31:31;;;;;;;35.07;7.80;;;;;;;4.23;100.00;101450.91;5282862;28;20044;-73
2023/12/20 07:34:02;;;;;;;24.40;8.43;;;;;;;4.25;100.00;101443.22;5282725;28;20040;-73
2023/12/20 07:36:33;;;;;;;22.60;8.10;;;;;;;4.27;100.00;101446.72;5282625;28;20428;-73
2023/12/20 07:39:05;;;;;;;29.17;6.73;;;;;;;4.31;100.00;101448.53;5282804;28;20141;-73
2023/12/20 07:41:36;;;;;;;26.93;7.30;;;;;;;4.31;100.00;101445.94;5282781;28;20036;-74
2023/12/20 07:44:07;;;;;;;22.43;6.40;;;;;;;4.30;100.00;101442.50;5282713;28;20124;-73
2023/12/20 07:46:39;;;;;;;34.90;9.17;;;;;;;4.35;100.00;101438.31;5282672;28;20092;-73
2023/12/20 07:49:11;;;;;;;24.53;6.87;;;;;;;4.36;100.00;101427.16;5282809;28;20063;-74
2023/12/20 07:51:42;;;;;;;25.85;6.57;;;;;;;4.37;100.00;101435.78;5282446;28;20040;-74
2023/12/20 07:54:13;;;;;;;23.87;7.87;;;;;;;4.38;100.00;101440.09;5282135;28;20108;-75
2023/12/20 07:56:46;;;;;;;27.87;7.50;;;;;;;4.43;100.00;101440.19;5282910;28;20040;-75
2023/12/20 07:59:18;;;;;;;20.23;7.30;;;;;;;4.43;100.00;101435.91;5282373;28;20463;-74
2023/12/20 08:01:49;;;;;;;19.40;6.10;;;;;;;4.48;100.00;101436.03;5281910;28;20037;-74
2023/12/20 08:04:20;;;;;;;23.17;6.20;;;;;;;4.50;100.00;101453.28;5282055;28;20059;-75
2023/12/20 08:06:52;;;;;;;27.03;6.47;;;;;;;4.51;100.00;101457.63;5282576;28;20375;-73
2023/12/20 08:09:23;;;;;;;33.93;9.07;;;;;;;4.53;100.00;101460.22;5281897;28;20444;-74
2023/12/20 08:11:54;;;;;;;19.23;7.03;;;;;;;4.55;100.00;101450.81;5281907;28;20037;-74
2023/12/20 08:14:26;;;;;;;21.53;6.77;;;;;;;4.57;100.00;101456.88;5281770;28;20033;-74
2023/12/20 08:16:57;;;;;;;23.23;6.83;;;;;;;4.59;100.00;101450.03;5282010;28;20051;-74
2023/12/20 08:19:29;;;;;;;18.60;6.43;;;;;;;4.62;100.00;101454.38;5282123;28;20025;-74
2023/12/20 08:22:00;;;;;;;19.20;6.80;;;;;;;4.66;100.00;101459.66;5281948;28;20076;-74
2023/12/20 08:24:31;;;;;;;23.10;6.27;;;;;;;4.67;100.00;101460.53;5281453;28;20028;-74
2023/12/20 08:27:04;;;;;;;31.53;7.53;;;;;;;4.69;100.00;101462.31;5282005;28;20035;-73
2023/12/20 08:29:36;;;;;;;28.15;6.70;;;;;;;4.74;100.00;101467.59;5280660;28;20042;-73
2023/12/20 08:32:07;;;;;;;21.23;6.30;;;;;;;4.78;100.00;101465.94;5281853;28;20092;-73
2023/12/20 08:34:38;;;;;;;23.87;7.67;;;;;;;4.83;100.00;101470.38;5281974;28;20108;-74
2023/12/20 08:37:10;;;;;;;26.10;6.33;;;;;;;4.91;100.00;101467.94;5280326;28;20039;-73
2023/12/20 08:39:43;;;;;;;20.97;6.47;;;;;;;4.96;100.00;101471.50;5281635;28;20476;-74
2023/12/20 08:42:14;;;;;;;17.70;5.78;;;;;;;5.02;100.00;101476.78;5281994;28;20036;-74
2023/12/20 08:44:46;;;;;;;22.40;5.17;;;;;;;5.06;100.00;101463.09;5281674;28;20032;-73
2023/12/20 08:47:18;;;;;;;19.07;5.87;;;;;;;5.09;100.00;101462.31;5281893;28;20036;-73
2023/12/20 08:49:49;;;;;;;28.15;6.50;;;;;;;5.11;100.00;101453.72;5281663;28;20059;-73
2023/12/20 08:52:21;;;;;;;20.43;6.40;;;;;;;5.15;100.00;101446.03;5281362;28;20485;-73
2023/12/20 08:54:53;;;;;;;29.00;7.17;;;;;;;5.19;100.00;101443.56;5281899;28;20043;-74
2023/12/20 08:57:25;;;;;;;21.70;5.75;;;;;;;5.20;100.00;101444.41;5281605;28;20480;-74
2023/12/20 08:59:56;;;;;;;25.40;7.07;;;;;;;5.17;100.00;101439.19;5281603;28;20078;-74
2023/12/20 09:02:28;;;;;;;28.00;7.93;;;;;;;5.15;100.00;101433.13;5281520;28;20075;-74
2023/12/20 09:05:00;;;;;;;19.85;6.32;;;;;;;5.13;100.00;101442.56;5281503;28;20337;-74
2023/12/20 09:07:31;;;;;;;24.70;6.80;;;;;;;5.10;100.00;101444.25;5281502;28;20039;-74
2023/12/20 09:10:03;;;;;;;21.17;6.80;;;;;;;5.11;100.00;101450.28;5280074;28;20440;-74
2023/12/20 09:12:35;;;;;;;17.80;5.27;;;;;;;5.15;100.00;101448.63;5281222;28;20068;-73
2023/12/20 09:15:06;;;;;;;24.67;7.00;;;;;;;5.15;100.00;101456.38;5284127;28;20146;-73
2023/12/20 09:17:38;;;;;;;19.57;7.43;;;;;;;5.12;100.00;101452.03;5285187;28;20044;-74
2023/12/20 09:20:10;;;;;;;20.75;4.90;;;;;;;5.13;100.00;101442.56;5285310;28;20028;-74
2023/12/20 09:22:41;;;;;;;22.57;6.37;;;;;;;5.16;100.00;101443.50;5284789;28;20032;-73
2023/12/20 09:25:14;;;;;;;25.80;6.00;;;;;;;5.18;100.00;101462.47;5284968;28;20379;-74
2023/12/20 09:27:46;;;;;;;29.77;5.75;;;;;;;5.19;100.00;101461.66;5285217;28;20426;-74
2023/12/20 09:30:18;;;;;;;28.83;7.77;;;;;;;5.21;100.00;101457.38;5285247;28;20032;-74
2023/12/20 09:32:49;;;;;;;18.85;6.93;;;;;;;5.25;100.00;101458.31;5284972;28;20055;-74
2023/12/20 09:35:21;;;;;;;21.67;6.80;;;;;;;5.26;100.00;101450.59;5285109;28;20119;-74
2023/12/20 09:37:53;;;;;;;19.60;5.55;;;;;;;5.32;100.00;101447.25;5284781;28;20033;-73
2023/12/20 09:40:26;;;;;;;18.70;6.00;;;;;;;5.34;100.00;101440.38;5284941;28;20094;-74
2023/12/20 09:43:03;;;;;;;25.17;7.28;;;;;;;5.36;100.00;101433.56;5284958;28;20517;-74
2023/12/20 09:45:34;;;;;;;23.15;6.55;;;;;;;5.38;100.00;101431.88;5284825;28;20086;-75
2023/12/20 09:48:07;;;;;;;16.23;4.90;;;;;;;5.44;100.00;101437.16;5284519;28;20040;-74
2023/12/20 09:50:39;;;;;;;18.90;5.53;;;;;;;5.46;100.00;101447.53;5284663;28;20028;-74
2023/12/20 09:53:14;;;;;;;22.08;7.45;;;;;;;5.48;100.00;101445.84;5284289;28;20050;-74
2023/12/20 09:55:46;;;;;;;27.65;5.75;;;;;;;5.53;100.00;101445.91;5284770;28;20105;-74
2023/12/20 09:58:17;;;;;;;25.53;7.30;;;;;;;5.54;100.00;101445.06;5284704;28;20060;-74
2023/12/20 10:00:49;;;;;;;18.63;6.03;;;;;;;5.55;100.00;101447.66;5284356;28;20032;-74
2023/12/20 10:03:26;;;;;;;18.23;6.17;;;;;;;5.57;100.00;101447.69;5284581;28;20028;-74
2023/12/20 10:05:58;;;;;;;20.48;5.97;;;;;;;5.58;100.00;101446.88;5284327;28;20021;-74
2023/12/20 10:08:30;;;;;;;23.85;5.55;;;;;;;5.59;100.00;101453.78;5284372;28;20082;-75
2023/12/20 10:11:02;;;;;;;23.60;6.57;;;;;;;5.65;100.00;101438.38;5284148;28;20028;-74
2023/12/20 10:13:34;;;;;;;20.05;5.47;;;;;;;5.68;100.00;101453.94;5284386;28;20154;-75
2023/12/20 10:16:07;;;;;;;26.33;6.67;;;;;;;5.71;100.00;101443.66;5284327;28;20119;-75
2023/12/20 10:18:38;;;;;;;29.45;6.65;;;;;;;5.76;100.00;101423.03;5284372;28;20031;-74
2023/12/20 10:21:11;;;;;;;25.87;7.20;;;;;;;5.81;100.00;101426.56;5316782;28;20032;-74
2023/12/20 10:23:43;;;;;;;17.13;5.45;;;;;;;5.87;100.00;101431.00;5283457;28;20041;-74
2023/12/20 10:26:23;;;;;;;18.97;5.40;;;;;;;5.90;100.00;101433.63;5282515;28;20031;-74
2023/12/20 10:28:59;;;;;;;21.98;6.90;;;;;;;5.94;100.00;101433.72;5284012;28;20365;-73
2023/12/20 10:31:33;;;;;;;16.08;4.97;;;;;;;5.97;100.00;101438.09;5283410;28;20464;-73
2023/12/20 10:34:04;;;;;;;18.48;5.18;;;;;;;6.00;100.00;101440.72;5283988;28;20170;-74
2023/12/20 10:36:36;;;;;;;27.63;5.73;;;;;;;6.06;100.00;101435.66;5282596;28;20085;-73
2023/12/20 10:39:11;;;;;;;20.07;5.67;;;;;;;6.07;100.00;101427.06;5283869;28;20486;-74
2023/12/20 10:41:44;;;;;;;17.73;4.93;;;;;;;6.07;100.00;101433.94;5283668;28;20028;-73
2023/12/20 10:44:16;;;;;;;22.02;5.47;;;;;;;6.06;100.00;101435.66;5282078;28;20078;-72
2023/12/20 10:46:51;;;;;;;20.83;4.90;;;;;;;6.08;100.00;101425.34;5283703;28;20077;-73
2023/12/20 10:49:23;;;;;;;18.13;5.55;;;;;;;6.07;100.00;101426.16;5283823;28;20024;-74
2023/12/20 10:51:57;;;;;;;40.08;8.57;;;;;;;6.10;100.00;101410.69;5283620;28;20472;-74
2023/12/20 10:54:28;;;;;;;20.35;5.30;;;;;;;6.12;100.00;101420.22;5282928;28;20463;-73
2023/12/20 10:57:04;;;;;;;17.37;5.97;;;;;;;6.11;100.00;101412.44;5283760;28;20048;-74
2023/12/20 10:59:39;;;;;;;23.75;5.25;;;;;;;6.15;100.00;101414.22;5283318;28;20036;-73
2023/12/20 11:02:10;;;;;;;21.27;5.40;;;;;;;6.15;100.00;101404.75;5283745;28;20458;-74
2023/12/20 11:05:21;;;;;;;17.23;6.20;;;;;;;6.14;100.00;101400.41;5283494;28;20112;-74
2023/12/20 11:08:05;;;;;;;18.38;5.03;;;;;;;6.12;100.00;101404.69;5270878;28;20508;-74
2023/12/20 11:10:47;;;;;;;26.20;6.22;;;;;;;6.13;100.00;101395.22;5283349;28;20028;-74
2023/12/20 11:13:40;;;;;;;17.67;5.78;;;;;;;6.13;100.00;101395.22;5283247;28;20358;-74
2023/12/20 11:16:12;;;;;;;16.33;4.78;;;;;;;6.12;100.00;101391.75;5283052;28;20127;-74
2023/12/20 11:18:45;;;;;;;22.40;4.93;;;;;;;6.10;100.00;101389.97;5282834;28;20039;-74
2023/12/20 11:21:16;;;;;;;16.48;6.07;;;;;;;5.98;100.00;101388.09;5282883;28;20040;-74
2023/12/20 11:23:48;;;;;;;16.83;4.70;;;;;;;5.96;100.00;101397.50;5282718;28;20124;-74
2023/12/20 11:26:27;;;;;;;16.77;5.53;;;;;;;5.94;100.00;101388.84;5282912;28;20037;-74
2023/12/20 11:29:33;;;;;;;19.95;6.03;;;;;;;5.88;100.00;101386.19;5282957;28;20024;-74
2023/12/20 11:32:29;;;;;;;16.52;4.60;;;;;;;5.79;100.00;101387.75;5282498;28;20040;-74
2023/12/20 11:35:21;;;;;;;31.63;5.90;;;;;;;5.75;100.00;101379.94;5282704;28;20039;-74
2023/12/20 11:37:52;;;;;;;19.08;6.32;;;;;;;5.75;100.00;101367.84;5281757;28;20048;-74
2023/12/20 11:40:25;;;;;;;25.00;6.37;;;;;;;5.75;100.00;101372.16;5282765;28;20037;-75